55 Max
24 km/h
4 Mini

LFMY 160130Z AUTO 32010KT CAVOK 17/12 Q1017

TAF LFMY 151923Z 1519/1615 CNL